sensor_id;sensor_type;location;lat;lon;timestamp;pressure;altitude;pressure_sealevel;temperature;humidity
39051;BME280;24805;55.852;37.644;2022-12-22T00:05:22;98520.97;;;1.59;77.30
39051;BME280;24805;55.852;37.644;2022-12-22T00:10:42;98530.75;;;1.57;77.59
39051;BME280;24805;55.852;37.644;2022-12-22T00:16:03;98527.16;;;1.58;77.44
39051;BME280;24805;55.852;37.644;2022-12-22T00:21:25;98526.28;;;1.67;77.21
39051;BME280;24805;55.852;37.644;2022-12-22T00:26:48;98524.47;;;1.68;77.32
39051;BME280;24805;55.852;37.644;2022-12-22T00:32:13;98513.31;;;1.76;77.66
39051;BME280;24805;55.852;37.644;2022-12-22T00:37:35;98503.00;;;1.74;77.32
39051;BME280;24805;55.852;37.644;2022-12-22T00:42:56;98505.34;;;1.67;77.15
39051;BME280;24805;55.852;37.644;2022-12-22T00:48:24;98498.81;;;1.81;77.25
39051;BME280;24805;55.852;37.644;2022-12-22T00:53:46;98487.06;;;1.67;77.37
39051;BME280;24805;55.852;37.644;2022-12-22T00:59:08;98487.97;;;1.76;77.45
39051;BME280;24805;55.852;37.644;2022-12-22T01:04:29;98467.63;;;1.70;77.37
39051;BME280;24805;55.852;37.644;2022-12-22T01:09:51;98472.28;;;1.76;77.42
39051;BME280;24805;55.852;37.644;2022-12-22T01:15:17;98464.81;;;1.81;77.24
39051;BME280;24805;55.852;37.644;2022-12-22T01:20:38;98465.94;;;1.79;77.42
39051;BME280;24805;55.852;37.644;2022-12-22T01:25:59;98467.41;;;1.81;77.31
39051;BME280;24805;55.852;37.644;2022-12-22T01:31:28;98453.47;;;1.90;77.46
39051;BME280;24805;55.852;37.644;2022-12-22T01:36:48;98461.22;;;1.82;77.16
39051;BME280;24805;55.852;37.644;2022-12-22T01:42:11;98459.00;;;1.87;77.43
39051;BME280;24805;55.852;37.644;2022-12-22T01:47:33;98456.09;;;1.90;77.41
39051;BME280;24805;55.852;37.644;2022-12-22T01:52:53;98440.69;;;1.87;77.46
39051;BME280;24805;55.852;37.644;2022-12-22T01:58:25;98456.31;;;1.97;77.83
39051;BME280;24805;55.852;37.644;2022-12-22T02:03:46;98442.56;;;1.95;77.57
39051;BME280;24805;55.852;37.644;2022-12-22T02:14:52;98424.09;;;1.96;77.20
39051;BME280;24805;55.852;37.644;2022-12-22T02:20:34;98439.66;;;1.98;77.49
39051;BME280;24805;55.852;37.644;2022-12-22T02:31:38;98432.84;;;2.05;77.60
39051;BME280;24805;55.852;37.644;2022-12-22T02:43:17;98427.72;;;2.21;77.55
39051;BME280;24805;55.852;37.644;2022-12-22T02:49:30;98427.00;;;2.11;77.46
39051;BME280;24805;55.852;37.644;2022-12-22T02:54:31;98409.00;;;1.90;77.84
39051;BME280;24805;55.852;37.644;2022-12-22T02:59:52;98431.72;;;2.07;77.55
39051;BME280;24805;55.852;37.644;2022-12-22T03:05:13;98438.75;;;2.07;77.46
39051;BME280;24805;55.852;37.644;2022-12-22T03:10:33;98429.47;;;2.13;77.75
39051;BME280;24805;55.852;37.644;2022-12-22T03:15:54;98432.38;;;2.10;77.84
39051;BME280;24805;55.852;37.644;2022-12-22T03:21:15;98421.63;;;2.13;77.85
39051;BME280;24805;55.852;37.644;2022-12-22T03:26:35;98420.13;;;2.10;77.75
39051;BME280;24805;55.852;37.644;2022-12-22T03:31:39;98415.72;;;2.11;77.92
39051;BME280;24805;55.852;37.644;2022-12-22T03:36:42;98421.63;;;2.13;77.89
39051;BME280;24805;55.852;37.644;2022-12-22T03:41:44;98413.78;;;2.13;78.13
39051;BME280;24805;55.852;37.644;2022-12-22T03:47:05;98412.50;;;2.17;77.76
39051;BME280;24805;55.852;37.644;2022-12-22T03:52:07;98406.91;;;2.12;77.75
39051;BME280;24805;55.852;37.644;2022-12-22T03:57:09;98417.88;;;2.15;78.17
39051;BME280;24805;55.852;37.644;2022-12-22T04:02:11;98424.38;;;2.11;78.12
39051;BME280;24805;55.852;37.644;2022-12-22T04:07:13;98406.75;;;2.13;77.87
39051;BME280;24805;55.852;37.644;2022-12-22T04:12:16;98404.19;;;2.21;77.70
39051;BME280;24805;55.852;37.644;2022-12-22T04:17:36;98395.50;;;2.21;77.65
39051;BME280;24805;55.852;37.644;2022-12-22T04:22:38;98395.50;;;2.21;77.79
39051;BME280;24805;55.852;37.644;2022-12-22T04:27:40;98381.72;;;2.11;77.58
39051;BME280;24805;55.852;37.644;2022-12-22T04:32:42;98413.91;;;2.29;77.65
39051;BME280;24805;55.852;37.644;2022-12-22T04:37:44;98409.63;;;2.28;77.79
39051;BME280;24805;55.852;37.644;2022-12-22T04:42:46;98406.19;;;2.27;77.74
39051;BME280;24805;55.852;37.644;2022-12-22T04:47:48;98407.16;;;2.26;77.74
39051;BME280;24805;55.852;37.644;2022-12-22T04:52:50;98402.09;;;2.25;78.15
39051;BME280;24805;55.852;37.644;2022-12-22T04:57:52;98406.19;;;2.27;77.79
39051;BME280;24805;55.852;37.644;2022-12-22T05:02:54;98416.28;;;2.22;78.08
39051;BME280;24805;55.852;37.644;2022-12-22T05:07:57;98411.66;;;2.34;77.42
39051;BME280;24805;55.852;37.644;2022-12-22T05:12:59;98404.94;;;2.31;77.60
39051;BME280;24805;55.852;37.644;2022-12-22T05:18:02;98422.94;;;2.34;77.57
39051;BME280;24805;55.852;37.644;2022-12-22T05:23:04;98431.78;;;2.33;77.59
39051;BME280;24805;55.852;37.644;2022-12-22T05:28:06;98439.53;;;2.25;78.16
39051;BME280;24805;55.852;37.644;2022-12-22T05:33:08;98430.56;;;2.28;78.00
39051;BME280;24805;55.852;37.644;2022-12-22T05:38:10;98424.81;;;2.24;77.92
39051;BME280;24805;55.852;37.644;2022-12-22T05:43:12;98457.19;;;2.23;78.40
39051;BME280;24805;55.852;37.644;2022-12-22T05:48:14;98449.72;;;2.28;78.03
39051;BME280;24805;55.852;37.644;2022-12-22T05:53:19;98449.88;;;2.27;78.20
39051;BME280;24805;55.852;37.644;2022-12-22T05:58:21;98442.69;;;2.29;78.15
39051;BME280;24805;55.852;37.644;2022-12-22T06:03:24;98460.72;;;2.32;78.21
39051;BME280;24805;55.852;37.644;2022-12-22T06:08:27;98465.28;;;2.30;77.86
39051;BME280;24805;55.852;37.644;2022-12-22T06:13:29;98457.94;;;2.33;78.07
39051;BME280;24805;55.852;37.644;2022-12-22T06:18:31;98456.31;;;2.32;78.31
39051;BME280;24805;55.852;37.644;2022-12-22T06:23:33;98457.50;;;2.38;77.76
39051;BME280;24805;55.852;37.644;2022-12-22T06:28:35;98457.50;;;2.38;77.96
39051;BME280;24805;55.852;37.644;2022-12-22T06:33:37;98461.09;;;2.37;78.30
39051;BME280;24805;55.852;37.644;2022-12-22T06:38:39;98465.34;;;2.38;78.30
39051;BME280;24805;55.852;37.644;2022-12-22T06:43:41;98460.47;;;2.43;77.84
39051;BME280;24805;55.852;37.644;2022-12-22T06:48:43;98466.19;;;2.38;78.37
39051;BME280;24805;55.852;37.644;2022-12-22T06:54:04;98457.84;;;2.43;78.03
39051;BME280;24805;55.852;37.644;2022-12-22T06:59:06;98458.91;;;2.50;77.82
39051;BME280;24805;55.852;37.644;2022-12-22T07:04:09;98450.06;;;2.51;77.83
39051;BME280;24805;55.852;37.644;2022-12-22T07:09:11;98473.47;;;2.53;77.99
39051;BME280;24805;55.852;37.644;2022-12-22T07:14:13;98469.88;;;2.54;77.77
39051;BME280;24805;55.852;37.644;2022-12-22T07:19:15;98476.63;;;2.56;78.14
39051;BME280;24805;55.852;37.644;2022-12-22T07:24:17;98471.56;;;2.63;78.11
39051;BME280;24805;55.852;37.644;2022-12-22T07:29:24;98474.88;;;2.65;77.69
39051;BME280;24805;55.852;37.644;2022-12-22T07:34:26;98470.16;;;2.68;77.35
39051;BME280;24805;55.852;37.644;2022-12-22T07:39:28;98477.69;;;2.71;77.86
39051;BME280;24805;55.852;37.644;2022-12-22T07:44:30;98485.72;;;2.70;77.91
39051;BME280;24805;55.852;37.644;2022-12-22T07:49:32;98472.63;;;2.70;77.53
39051;BME280;24805;55.852;37.644;2022-12-22T07:54:53;98488.19;;;2.71;77.31
39051;BME280;24805;55.852;37.644;2022-12-22T07:59:55;98484.75;;;2.71;78.03
39051;BME280;24805;55.852;37.644;2022-12-22T08:04:57;98488.34;;;2.70;77.51
39051;BME280;24805;55.852;37.644;2022-12-22T08:10:00;98478.81;;;2.69;77.93
39051;BME280;24805;55.852;37.644;2022-12-22T08:15:05;98483.78;;;2.72;77.31
39051;BME280;24805;55.852;37.644;2022-12-22T08:20:07;98481.81;;;2.74;77.28
39051;BME280;24805;55.852;37.644;2022-12-22T08:25:10;98483.47;;;2.75;77.34
39051;BME280;24805;55.852;37.644;2022-12-22T08:30:13;98477.41;;;2.74;77.50
39051;BME280;24805;55.852;37.644;2022-12-22T08:35:16;98459.22;;;2.73;77.11
39051;BME280;24805;55.852;37.644;2022-12-22T08:40:21;98463.38;;;2.84;77.30
39051;BME280;24805;55.852;37.644;2022-12-22T08:45:25;98466.13;;;2.82;77.51
39051;BME280;24805;55.852;37.644;2022-12-22T08:50:27;98472.25;;;2.91;76.93
39051;BME280;24805;55.852;37.644;2022-12-22T08:55:29;98483.25;;;2.94;77.18
39051;BME280;24805;55.852;37.644;2022-12-22T09:00:32;98479.00;;;2.93;76.67
39051;BME280;24805;55.852;37.644;2022-12-22T09:05:34;98462.75;;;2.90;76.93
39051;BME280;24805;55.852;37.644;2022-12-22T09:10:41;98468.75;;;3.08;77.02
39051;BME280;24805;55.852;37.644;2022-12-22T09:15:44;98482.31;;;3.03;76.83
39051;BME280;24805;55.852;37.644;2022-12-22T09:20:46;98489.84;;;2.98;77.63
39051;BME280;24805;55.852;37.644;2022-12-22T09:25:48;98493.09;;;3.00;76.65
39051;BME280;24805;55.852;37.644;2022-12-22T09:30:53;98497.38;;;3.01;76.96
39051;BME280;24805;55.852;37.644;2022-12-22T09:35:55;98511.13;;;3.03;77.20
39051;BME280;24805;55.852;37.644;2022-12-22T09:41:30;98513.31;;;3.08;77.32
39051;BME280;24805;55.852;37.644;2022-12-22T09:46:36;98500.34;;;3.06;76.49
39051;BME280;24805;55.852;37.644;2022-12-22T09:51:42;98491.97;;;3.03;77.11
39051;BME280;24805;55.852;37.644;2022-12-22T09:56:44;98504.22;;;2.94;77.12
39051;BME280;24805;55.852;37.644;2022-12-22T10:02:17;98519.31;;;3.00;77.63
39051;BME280;24805;55.852;37.644;2022-12-22T10:07:33;98495.03;;;2.90;77.32
39051;BME280;24805;55.852;37.644;2022-12-22T10:12:36;98495.84;;;2.91;77.18
39051;BME280;24805;55.852;37.644;2022-12-22T10:17:38;98501.47;;;3.04;76.88
39051;BME280;24805;55.852;37.644;2022-12-22T10:22:49;98502.56;;;3.19;77.37
39051;BME280;24805;55.852;37.644;2022-12-22T10:27:55;98495.63;;;3.10;76.83
39051;BME280;24805;55.852;37.644;2022-12-22T10:33:02;98486.63;;;3.13;76.92
39051;BME280;24805;55.852;37.644;2022-12-22T10:38:31;98490.00;;;3.31;77.41
39051;BME280;24805;55.852;37.644;2022-12-22T10:43:36;98487.47;;;3.13;76.80
39051;BME280;24805;55.852;37.644;2022-12-22T10:48:39;98472.34;;;3.07;76.98
39051;BME280;24805;55.852;37.644;2022-12-22T10:53:51;98472.72;;;3.12;77.16
39051;BME280;24805;55.852;37.644;2022-12-22T10:58:55;98479.44;;;3.15;77.07
39051;BME280;24805;55.852;37.644;2022-12-22T11:04:15;98488.06;;;3.33;76.92
39051;BME280;24805;55.852;37.644;2022-12-22T11:09:17;98505.00;;;3.13;76.85
39051;BME280;24805;55.852;37.644;2022-12-22T11:20:35;98517.50;;;3.27;77.23
39051;BME280;24805;55.852;37.644;2022-12-22T11:37:03;98516.81;;;3.17;77.57
39051;BME280;24805;55.852;37.644;2022-12-22T11:47:49;98511.88;;;3.14;77.43
39051;BME280;24805;55.852;37.644;2022-12-22T12:30:31;98553.47;;;2.91;77.31
39051;BME280;24805;55.852;37.644;2022-12-22T12:36:05;98540.25;;;3.00;77.72
39051;BME280;24805;55.852;37.644;2022-12-22T12:51:53;98571.97;;;2.89;77.39
39051;BME280;24805;55.852;37.644;2022-12-22T13:02:57;98558.78;;;2.81;77.42
39051;BME280;24805;55.852;37.644;2022-12-22T13:23:39;98567.63;;;2.98;77.08
39051;BME280;24805;55.852;37.644;2022-12-22T13:39:26;98562.69;;;2.95;76.61
39051;BME280;24805;55.852;37.644;2022-12-22T13:44:30;98574.31;;;3.00;77.08
39051;BME280;24805;55.852;37.644;2022-12-22T13:49:33;98577.44;;;2.96;76.79
39051;BME280;24805;55.852;37.644;2022-12-22T13:54:56;98575.78;;;2.95;76.36
39051;BME280;24805;55.852;37.644;2022-12-22T13:59:58;98592.63;;;2.92;76.79
39051;BME280;24805;55.852;37.644;2022-12-22T14:05:11;98584.66;;;3.02;77.06
39051;BME280;24805;55.852;37.644;2022-12-22T14:10:13;98579.81;;;2.89;76.88
39051;BME280;24805;55.852;37.644;2022-12-22T14:15:17;98577.72;;;2.93;77.21
39051;BME280;24805;55.852;37.644;2022-12-22T14:20:24;98582.03;;;3.02;76.46
39051;BME280;24805;55.852;37.644;2022-12-22T14:25:31;98587.13;;;3.03;76.76
39051;BME280;24805;55.852;37.644;2022-12-22T14:30:37;98582.72;;;3.04;76.40
39051;BME280;24805;55.852;37.644;2022-12-22T14:35:42;98580.41;;;3.01;76.65
39051;BME280;24805;55.852;37.644;2022-12-22T14:40:44;98564.56;;;2.85;76.25
39051;BME280;24805;55.852;37.644;2022-12-22T14:46:04;98600.59;;;3.08;76.43
39051;BME280;24805;55.852;37.644;2022-12-22T14:51:07;98612.63;;;2.93;76.59
39051;BME280;24805;55.852;37.644;2022-12-22T14:56:12;98613.22;;;2.87;76.75
39051;BME280;24805;55.852;37.644;2022-12-22T15:01:27;98622.19;;;2.85;76.57
39051;BME280;24805;55.852;37.644;2022-12-22T15:06:39;98631.69;;;2.86;77.10
39051;BME280;24805;55.852;37.644;2022-12-22T15:11:51;98629.22;;;2.84;76.97
39051;BME280;24805;55.852;37.644;2022-12-22T15:16:55;98635.59;;;2.82;76.62
39051;BME280;24805;55.852;37.644;2022-12-22T15:21:58;98643.91;;;2.77;76.84
39051;BME280;24805;55.852;37.644;2022-12-22T15:27:00;98635.44;;;2.83;76.18
39051;BME280;24805;55.852;37.644;2022-12-22T15:32:02;98632.81;;;2.83;76.14
39051;BME280;24805;55.852;37.644;2022-12-22T15:37:04;98628.41;;;2.84;76.16
39051;BME280;24805;55.852;37.644;2022-12-22T15:42:06;98633.56;;;2.93;76.41
39051;BME280;24805;55.852;37.644;2022-12-22T15:47:09;98624.38;;;2.89;76.36
39051;BME280;24805;55.852;37.644;2022-12-22T15:52:12;98630.44;;;2.90;76.09
39051;BME280;24805;55.852;37.644;2022-12-22T15:57:15;98638.28;;;2.90;76.22
39051;BME280;24805;55.852;37.644;2022-12-22T16:02:17;98637.31;;;2.91;76.33
39051;BME280;24805;55.852;37.644;2022-12-22T16:07:19;98651.91;;;2.93;76.26
39051;BME280;24805;55.852;37.644;2022-12-22T16:12:22;98647.34;;;2.95;76.25
39051;BME280;24805;55.852;37.644;2022-12-22T16:17:26;98647.69;;;3.00;76.13
39051;BME280;24805;55.852;37.644;2022-12-22T16:22:31;98636.88;;;2.95;76.09
39051;BME280;24805;55.852;37.644;2022-12-22T16:27:34;98638.50;;;2.96;76.08
39051;BME280;24805;55.852;37.644;2022-12-22T16:32:36;98630.50;;;2.98;76.35
39051;BME280;24805;55.852;37.644;2022-12-22T16:37:40;98633.31;;;3.04;76.09
39051;BME280;24805;55.852;37.644;2022-12-22T16:42:48;98644.25;;;3.18;76.01
39051;BME280;24805;55.852;37.644;2022-12-22T16:48:15;98637.56;;;3.23;76.03
39051;BME280;24805;55.852;37.644;2022-12-22T16:53:19;98637.53;;;3.15;75.77
39051;BME280;24805;55.852;37.644;2022-12-22T16:58:21;98640.97;;;3.16;75.70
39051;BME280;24805;55.852;37.644;2022-12-22T17:03:24;98655.44;;;3.20;75.96
39051;BME280;24805;55.852;37.644;2022-12-22T17:08:33;98645.91;;;3.19;75.56
39051;BME280;24805;55.852;37.644;2022-12-22T17:13:37;98631.59;;;3.13;75.23
39051;BME280;24805;55.852;37.644;2022-12-22T17:18:39;98651.44;;;3.16;75.50
39051;BME280;24805;55.852;37.644;2022-12-22T17:23:44;98663.47;;;3.26;75.31
39051;BME280;24805;55.852;37.644;2022-12-22T17:28:48;98658.84;;;3.20;75.51
39051;BME280;24805;55.852;37.644;2022-12-22T17:33:50;98656.22;;;3.20;75.39
39051;BME280;24805;55.852;37.644;2022-12-22T17:38:53;98650.69;;;3.23;75.45
39051;BME280;24805;55.852;37.644;2022-12-22T17:43:55;98652.63;;;3.21;75.31
39051;BME280;24805;55.852;37.644;2022-12-22T17:48:57;98658.38;;;3.25;74.93
39051;BME280;24805;55.852;37.644;2022-12-22T17:53:59;98644.13;;;3.19;74.95
39051;BME280;24805;55.852;37.644;2022-12-22T17:59:01;98654.66;;;3.27;75.02
39051;BME280;24805;55.852;37.644;2022-12-22T18:04:03;98664.16;;;3.28;74.71
39051;BME280;24805;55.852;37.644;2022-12-22T18:09:06;98644.31;;;3.26;75.05
39051;BME280;24805;55.852;37.644;2022-12-22T18:14:11;98651.88;;;3.29;75.00
39051;BME280;24805;55.852;37.644;2022-12-22T18:19:14;98658.91;;;3.28;74.91
39051;BME280;24805;55.852;37.644;2022-12-22T18:24:18;98654.34;;;3.30;75.72
39051;BME280;24805;55.852;37.644;2022-12-22T18:29:20;98653.66;;;3.28;75.28
39051;BME280;24805;55.852;37.644;2022-12-22T18:34:22;98663.75;;;3.41;74.87
39051;BME280;24805;55.852;37.644;2022-12-22T18:39:24;98677.09;;;3.47;74.35
39051;BME280;24805;55.852;37.644;2022-12-22T18:44:26;98678.88;;;3.47;74.40
39051;BME280;24805;55.852;37.644;2022-12-22T18:49:28;98644.16;;;3.27;74.41
39051;BME280;24805;55.852;37.644;2022-12-22T18:54:30;98655.28;;;3.47;74.82
39051;BME280;24805;55.852;37.644;2022-12-22T18:59:34;98662.63;;;3.43;74.67
39051;BME280;24805;55.852;37.644;2022-12-22T19:04:36;98659.19;;;3.43;74.77
39051;BME280;24805;55.852;37.644;2022-12-22T19:09:38;98635.47;;;3.27;75.33
39051;BME280;24805;55.852;37.644;2022-12-22T19:14:42;98665.09;;;3.45;75.16
39051;BME280;24805;55.852;37.644;2022-12-22T19:19:45;98673.94;;;3.44;75.37
39051;BME280;24805;55.852;37.644;2022-12-22T19:24:48;98670.78;;;3.40;74.92
39051;BME280;24805;55.852;37.644;2022-12-22T19:29:53;98675.72;;;3.43;75.60
39051;BME280;24805;55.852;37.644;2022-12-22T19:35:12;98676.09;;;3.49;75.65
39051;BME280;24805;55.852;37.644;2022-12-22T19:40:15;98678.66;;;3.40;75.31
39051;BME280;24805;55.852;37.644;2022-12-22T19:45:24;98675.97;;;3.50;75.01
39051;BME280;24805;55.852;37.644;2022-12-22T19:50:29;98678.84;;;3.39;75.19
39051;BME280;24805;55.852;37.644;2022-12-22T19:55:36;98680.53;;;3.48;75.16
39051;BME280;24805;55.852;37.644;2022-12-22T20:00:41;98688.84;;;3.43;74.91
39051;BME280;24805;55.852;37.644;2022-12-22T20:05:43;98689.53;;;3.45;75.20
39051;BME280;24805;55.852;37.644;2022-12-22T20:10:46;98687.78;;;3.54;74.82
39051;BME280;24805;55.852;37.644;2022-12-22T20:15:53;98692.59;;;3.59;74.31
39051;BME280;24805;55.852;37.644;2022-12-22T20:26:21;98675.00;;;3.77;74.61
39051;BME280;24805;55.852;37.644;2022-12-22T20:31:24;98658.31;;;3.60;74.24
39051;BME280;24805;55.852;37.644;2022-12-22T20:36:28;98656.34;;;3.62;74.32
39051;BME280;24805;55.852;37.644;2022-12-22T20:41:32;98662.72;;;3.60;73.94
39051;BME280;24805;55.852;37.644;2022-12-22T20:46:34;98655.94;;;3.49;74.24
39051;BME280;24805;55.852;37.644;2022-12-22T20:51:36;98663.81;;;3.49;74.26
39051;BME280;24805;55.852;37.644;2022-12-22T20:56:42;98634.09;;;3.40;74.04
39051;BME280;24805;55.852;37.644;2022-12-22T21:01:45;98635.28;;;3.46;74.24
39051;BME280;24805;55.852;37.644;2022-12-22T21:06:50;98627.03;;;3.41;74.39
39051;BME280;24805;55.852;37.644;2022-12-22T21:11:53;98633.38;;;3.30;74.34
39051;BME280;24805;55.852;37.644;2022-12-22T21:16:55;98621.91;;;3.31;74.48
39051;BME280;24805;55.852;37.644;2022-12-22T21:21:57;98641.47;;;3.37;74.34
39051;BME280;24805;55.852;37.644;2022-12-22T21:26:59;98646.59;;;3.46;74.46
39051;BME280;24805;55.852;37.644;2022-12-22T21:32:02;98640.00;;;3.42;74.82
39051;BME280;24805;55.852;37.644;2022-12-22T21:37:04;98647.88;;;3.42;75.22
39051;BME280;24805;55.852;37.644;2022-12-22T21:42:08;98638.56;;;3.48;74.32
39051;BME280;24805;55.852;37.644;2022-12-22T21:47:16;98648.44;;;3.54;74.81
39051;BME280;24805;55.852;37.644;2022-12-22T21:52:19;98633.53;;;3.55;74.40
39051;BME280;24805;55.852;37.644;2022-12-22T21:57:21;98636.69;;;3.58;74.41
39051;BME280;24805;55.852;37.644;2022-12-22T22:02:23;98647.00;;;3.60;74.09
39051;BME280;24805;55.852;37.644;2022-12-22T22:07:25;98641.59;;;3.61;73.72
39051;BME280;24805;55.852;37.644;2022-12-22T22:12:27;98658.50;;;3.59;73.54
39051;BME280;24805;55.852;37.644;2022-12-22T22:17:37;98657.28;;;3.53;74.07
39051;BME280;24805;55.852;37.644;2022-12-22T22:22:39;98647.72;;;3.44;74.11
39051;BME280;24805;55.852;37.644;2022-12-22T22:27:43;98661.88;;;3.51;73.78
39051;BME280;24805;55.852;37.644;2022-12-22T22:32:49;98663.00;;;3.49;74.02
39051;BME280;24805;55.852;37.644;2022-12-22T22:37:51;98685.94;;;3.46;74.04
39051;BME280;24805;55.852;37.644;2022-12-22T22:42:53;98666.47;;;3.31;73.92
39051;BME280;24805;55.852;37.644;2022-12-22T22:47:57;98686.19;;;3.35;74.16
39051;BME280;24805;55.852;37.644;2022-12-22T22:52:59;98684.53;;;3.34;74.25
39051;BME280;24805;55.852;37.644;2022-12-22T22:58:01;98678.38;;;3.26;74.50
39051;BME280;24805;55.852;37.644;2022-12-22T23:03:03;98665.91;;;3.20;74.19
39051;BME280;24805;55.852;37.644;2022-12-22T23:08:06;98647.25;;;3.05;74.49
39051;BME280;24805;55.852;37.644;2022-12-22T23:13:08;98657.03;;;3.21;74.54
39051;BME280;24805;55.852;37.644;2022-12-22T23:18:10;98662.13;;;3.22;74.34
39051;BME280;24805;55.852;37.644;2022-12-22T23:23:12;98654.50;;;3.29;73.81
39051;BME280;24805;55.852;37.644;2022-12-22T23:28:14;98643.19;;;3.28;74.08
39051;BME280;24805;55.852;37.644;2022-12-22T23:33:18;98630.22;;;3.27;74.42
39051;BME280;24805;55.852;37.644;2022-12-22T23:38:20;98618.09;;;3.26;74.33
39051;BME280;24805;55.852;37.644;2022-12-22T23:43:22;98632.41;;;3.31;74.32
39051;BME280;24805;55.852;37.644;2022-12-22T23:48:24;98642.88;;;3.31;73.82
39051;BME280;24805;55.852;37.644;2022-12-22T23:53:26;98630.75;;;3.30;74.12
39051;BME280;24805;55.852;37.644;2022-12-22T23:58:29;98616.81;;;3.30;74.13
